Time;durP1;ratioP1;P1;durP2;ratioP2;P2;SDS_P1;SDS_P2;PMS_P1;PMS_P2;Temp;Humidity;BMP_temperature;BMP_pressure;BME280_temperature;BME280_humidity;BME280_pressure;Samples;Min_cycle;Max_cycle;Signal;HPM_P1;HPM_P2
2021/01/24 13:04:37;;;;;;;28.00;13.77;;;;;;;5.38;68.75;96917.39;1758445;79;22394;-55
2021/01/24 13:07:07;;;;;;;29.37;13.70;;;;;;;5.43;69.83;96917.11;1710279;82;21593;-55
2021/01/24 13:09:31;;;;;;;28.83;13.60;;;;;;;5.33;70.27;96913.86;1723077;82;21138;-53
2021/01/24 13:11:57;;;;;;;27.03;13.07;;;;;;;5.28;70.63;96926.26;1752209;82;21316;-58
2021/01/24 13:14:22;;;;;;;26.80;12.43;;;;;;;5.33;70.79;96909.05;1752414;82;21102;-53
2021/01/24 13:16:48;;;;;;;21.83;9.73;;;;;;;5.26;70.61;96904.31;1752067;82;21605;-54
2021/01/24 13:19:14;;;;;;;27.17;12.47;;;;;;;5.25;70.52;96920.22;1721972;82;21124;-55
2021/01/24 13:21:40;;;;;;;26.07;11.83;;;;;;;5.09;70.27;96920.88;1693397;83;21599;-54
2021/01/24 13:24:07;;;;;;;25.07;12.27;;;;;;;5.04;71.15;96926.52;1712979;84;21144;-57
2021/01/24 13:26:33;;;;;;;27.17;12.07;;;;;;;5.16;71.30;96933.67;1684663;84;21086;-57
2021/01/24 13:28:58;;;;;;;24.00;12.80;;;;;;;5.23;71.13;96935.16;1713078;84;21101;-54
2021/01/24 13:31:24;;;;;;;24.10;11.57;;;;;;;5.14;71.24;96935.36;1712916;84;21696;-56
2021/01/24 13:33:50;;;;;;;25.67;11.67;;;;;;;5.17;71.27;96940.61;1697630;84;21270;-57
2021/01/24 13:36:16;;;;;;;29.07;12.83;;;;;;;5.16;71.30;96941.73;1684471;85;21188;-59
2021/01/24 13:38:42;;;;;;;26.30;11.93;;;;;;;5.35;71.37;96945.77;1684754;85;21274;-56
2021/01/24 13:41:08;;;;;;;23.50;11.43;;;;;;;5.41;71.47;96961.03;1684715;85;21108;-57
2021/01/24 13:43:34;;;;;;;25.67;12.70;;;;;;;5.46;71.60;96966.92;1684937;85;21502;-58
2021/01/24 13:46:00;;;;;;;25.17;12.67;;;;;;;5.49;71.53;96968.89;1684805;85;21125;-59
2021/01/24 13:48:26;;;;;;;25.37;11.93;;;;;;;5.45;71.01;96975.33;1684443;84;21144;-61
2021/01/24 13:50:54;;;;;;;29.63;12.13;;;;;;;5.51;71.17;96977.96;1684571;85;21113;-60
2021/01/24 13:53:20;;;;;;;24.07;11.10;;;;;;;5.55;71.12;96978.22;1684599;85;21286;-59
2021/01/24 13:55:46;;;;;;;29.67;14.07;;;;;;;5.79;71.20;96974.45;1684596;85;21620;-61
2021/01/24 13:58:13;;;;;;;26.83;12.43;;;;;;;5.83;71.08;96970.70;1694753;84;21143;-58
2021/01/24 14:00:39;;;;;;;26.00;12.40;;;;;;;5.84;70.98;96972.83;1713662;83;21144;-56
2021/01/24 14:03:05;;;;;;;25.17;12.33;;;;;;;5.76;70.46;96977.30;1703479;83;21153;-55
2021/01/24 14:05:31;;;;;;;26.03;11.93;;;;;;;5.79;70.60;96969.07;1672510;86;21287;-59
2021/01/24 14:07:56;;;;;;;22.73;11.97;;;;;;;5.88;70.25;96971.01;1672408;86;21198;-59
2021/01/24 14:10:22;;;;;;;25.13;11.60;;;;;;;5.82;70.38;96977.20;1672385;86;21117;-58
2021/01/24 14:12:48;;;;;;;26.67;11.73;;;;;;;5.77;70.74;96980.77;1672351;86;21113;-56
2021/01/24 14:15:14;;;;;;;25.80;12.87;;;;;;;5.68;70.89;96977.52;1672200;86;21225;-59
2021/01/24 14:17:43;;;;;;;23.10;11.07;;;;;;;5.59;70.59;96983.66;1671837;84;21188;-59
2021/01/24 14:20:09;;;;;;;26.03;12.73;;;;;;;5.42;70.76;96984.89;1671894;86;21134;-58
2021/01/24 14:22:35;;;;;;;24.30;12.07;;;;;;;5.38;70.82;96989.97;1672051;86;21149;-58
2021/01/24 14:25:01;;;;;;;26.13;13.17;;;;;;;5.30;70.94;96995.21;1671845;86;21227;-57
2021/01/24 14:27:27;;;;;;;26.17;12.97;;;;;;;5.33;71.25;96989.69;1672282;86;21133;-61
2021/01/24 14:29:53;;;;;;;25.10;13.07;;;;;;;5.45;71.39;96993.59;1671901;86;21129;-57
2021/01/24 14:32:20;;;;;;;24.67;11.80;;;;;;;5.54;71.70;97005.48;1672121;86;21217;-57
2021/01/24 14:34:46;;;;;;;28.47;12.97;;;;;;;5.47;71.54;97004.00;1687213;84;21185;-61
2021/01/24 14:37:13;;;;;;;24.00;11.90;;;;;;;5.45;71.50;97015.66;1661386;85;21169;-58
2021/01/24 14:39:39;;;;;;;26.27;12.40;;;;;;;5.42;71.32;97011.77;1688538;85;21135;-60
2021/01/24 14:42:05;;;;;;;24.70;12.17;;;;;;;5.47;71.20;97015.53;1688515;85;21123;-59
2021/01/24 14:44:31;;;;;;;27.13;13.13;;;;;;;5.45;71.16;97019.13;1688661;85;21303;-58
2021/01/24 14:46:57;;;;;;;29.73;13.23;;;;;;;5.54;71.26;97022.96;1688557;85;21151;-61
2021/01/24 14:49:23;;;;;;;23.27;12.77;;;;;;;5.59;71.38;97030.73;1676465;84;21514;-59
2021/01/24 14:51:50;;;;;;;25.83;12.70;;;;;;;5.59;71.50;97028.82;1672327;86;21140;-60
2021/01/24 14:54:16;;;;;;;28.30;13.33;;;;;;;5.51;71.51;97031.14;1671915;86;21180;-59
2021/01/24 14:56:42;;;;;;;26.30;13.33;;;;;;;5.45;71.41;97036.61;1664745;86;21227;-60
2021/01/24 14:59:08;;;;;;;27.97;12.93;;;;;;;5.44;71.36;97042.32;1726903;82;21120;-60
2021/01/24 15:01:38;;;;;;;25.30;12.30;;;;;;;5.43;71.33;97040.22;1738221;82;21131;-57
2021/01/24 15:04:04;;;;;;;30.73;14.17;;;;;;;5.44;71.25;97035.03;1712140;82;21287;-63
2021/01/24 15:06:30;;;;;;;28.83;14.03;;;;;;;5.46;71.19;97046.80;1664357;86;21122;-63
2021/01/24 15:08:56;;;;;;;29.10;15.20;;;;;;;5.56;71.40;97047.58;1695992;83;21263;-64
2021/01/24 15:11:22;;;;;;;27.67;13.20;;;;;;;5.55;71.70;97054.11;1664691;86;21625;-63
2021/01/24 15:13:48;;;;;;;31.30;14.03;;;;;;;5.51;71.70;97047.88;1695854;85;21549;-62
2021/01/24 15:16:14;;;;;;;27.33;13.77;;;;;;;5.44;71.79;97055.20;1664847;85;21106;-58
2021/01/24 15:18:39;;;;;;;28.37;13.20;;;;;;;5.42;71.79;97066.10;1695714;83;21541;-58
2021/01/24 15:21:05;;;;;;;26.53;12.83;;;;;;;5.43;71.68;97071.70;1664686;85;21123;-58
2021/01/24 15:23:34;;;;;;;27.40;13.13;;;;;;;5.44;71.48;97067.30;1695719;84;21211;-58
2021/01/24 15:25:59;;;;;;;30.00;13.13;;;;;;;5.43;71.37;97075.17;1695677;84;21530;-59
2021/01/24 15:28:25;;;;;;;28.87;13.57;;;;;;;5.50;71.62;97075.88;1664564;86;21144;-61
2021/01/24 15:30:51;;;;;;;27.87;13.00;;;;;;;5.51;71.81;97077.45;1695798;84;21084;-60
2021/01/24 15:33:17;;;;;;;29.70;13.60;;;;;;;5.53;71.90;97092.66;1695732;83;21133;-60
2021/01/24 15:35:42;;;;;;;30.43;14.27;;;;;;;5.50;71.70;97102.77;1707146;84;21103;-55
2021/01/24 15:38:08;;;;;;;26.00;13.00;;;;;;;5.47;71.65;97109.64;1731500;82;21498;-56
2021/01/24 15:40:34;;;;;;;27.47;13.17;;;;;;;5.47;71.57;97104.83;1739139;82;21132;-54
2021/01/24 15:43:00;;;;;;;24.23;11.93;;;;;;;5.51;71.46;97107.78;1738850;82;21260;-55
2021/01/24 15:45:26;;;;;;;27.10;13.00;;;;;;;5.53;71.20;97101.50;1738882;81;21130;-57
2021/01/24 15:47:55;;;;;;;25.87;13.27;;;;;;;5.56;71.16;97098.10;1738798;82;21706;-57
2021/01/24 15:50:19;;;;;;;29.57;13.30;;;;;;;5.61;71.23;97097.84;1738531;82;21297;-60
2021/01/24 15:52:45;;;;;;;25.80;12.67;;;;;;;5.69;71.13;97106.84;1738962;82;21130;-58
2021/01/24 15:55:11;;;;;;;24.40;10.83;;;;;;;5.66;70.79;97115.61;1739190;82;21286;-56
2021/01/24 15:57:37;;;;;;;23.10;10.97;;;;;;;5.62;70.64;97114.20;1718216;82;21108;-56
2021/01/24 16:00:06;;;;;;;22.77;10.17;;;;;;;5.61;70.43;97117.22;1739047;82;21087;-56
2021/01/24 16:02:32;;;;;;;25.33;11.30;;;;;;;5.58;70.22;97108.52;1738950;82;21579;-59
2021/01/24 16:04:58;;;;;;;21.93;10.50;;;;;;;5.45;70.07;97105.16;1750071;81;21610;-57
2021/01/24 16:07:24;;;;;;;23.03;10.83;;;;;;;5.45;70.07;97105.16;1752903;82;21124;-59
2021/01/24 16:09:50;;;;;;;18.93;8.97;;;;;;;5.45;69.53;97120.52;1752794;82;21248;-55
2021/01/24 16:12:15;;;;;;;18.63;8.40;;;;;;;5.29;69.37;97123.23;1752745;82;21533;-57
2021/01/24 16:14:41;;;;;;;20.03;9.50;;;;;;;5.34;69.42;97124.31;1752965;82;21126;-58
2021/01/24 16:17:07;;;;;;;21.30;10.17;;;;;;;5.31;69.21;97128.48;1752875;82;21159;-60
2021/01/24 16:19:33;;;;;;;20.03;9.60;;;;;;;5.21;69.08;97125.56;1753110;82;21094;-55
2021/01/24 16:22:00;;;;;;;16.27;7.77;;;;;;;5.20;69.21;97123.44;1752996;82;21263;-55
2021/01/24 16:24:26;;;;;;;16.43;7.87;;;;;;;5.14;69.07;97114.63;1752926;82;21219;-56
2021/01/24 16:26:52;;;;;;;19.03;9.03;;;;;;;4.99;68.95;97104.67;1752734;82;21181;-59
2021/01/24 16:29:18;;;;;;;16.57;7.17;;;;;;;4.84;68.92;97100.31;1752828;82;21162;-57
2021/01/24 16:31:44;;;;;;;16.03;7.17;;;;;;;4.74;69.06;97102.19;1752667;82;21135;-57
2021/01/24 16:34:10;;;;;;;15.63;6.97;;;;;;;4.67;68.87;97093.95;1752710;82;21118;-58
2021/01/24 16:36:36;;;;;;;15.37;6.90;;;;;;;4.60;68.94;97107.77;1752995;82;21149;-58
2021/01/24 16:39:04;;;;;;;16.27;7.77;;;;;;;4.61;68.93;97104.72;1752780;82;21486;-58
2021/01/24 16:41:29;;;;;;;21.43;7.20;;;;;;;4.62;69.16;97098.80;1752736;81;21114;-56
2021/01/24 16:43:55;;;;;;;16.30;7.43;;;;;;;4.61;69.22;97105.31;1752709;82;21212;-57
2021/01/24 16:46:23;;;;;;;17.50;7.33;;;;;;;4.46;69.06;97102.83;1752881;82;21251;-56
2021/01/24 16:48:49;;;;;;;16.77;6.77;;;;;;;4.38;69.05;97115.84;1753045;82;21114;-59
2021/01/24 16:51:15;;;;;;;16.87;7.83;;;;;;;4.33;68.93;97119.55;1752823;82;21141;-56
2021/01/24 16:53:41;;;;;;;17.20;7.13;;;;;;;4.32;68.79;97122.57;1732938;82;21561;-57
2021/01/24 16:56:07;;;;;;;18.67;8.20;;;;;;;4.35;68.70;97117.84;1745369;82;21607;-62
2021/01/24 16:58:33;;;;;;;13.27;6.83;;;;;;;4.35;68.57;97115.95;1737264;82;21127;-58
2021/01/24 17:00:59;;;;;;;16.57;6.97;;;;;;;4.44;68.42;97110.98;1741067;82;21079;-56
2021/01/24 17:03:25;;;;;;;15.10;6.33;;;;;;;4.43;68.55;97109.42;1736191;82;22424;-55
2021/01/24 17:05:51;;;;;;;14.90;6.60;;;;;;;4.43;68.46;97110.77;1723534;82;21130;-59
2021/01/24 17:08:16;;;;;;;15.23;6.70;;;;;;;4.34;68.52;97113.07;1723262;82;22235;-60
2021/01/24 17:10:42;;;;;;;17.10;6.73;;;;;;;4.26;67.84;97114.00;1727151;82;21146;-61
2021/01/24 17:13:08;;;;;;;13.67;6.57;;;;;;;4.23;68.08;97121.41;1723312;82;21237;-63
2021/01/24 17:15:34;;;;;;;16.50;7.73;;;;;;;4.24;68.04;97123.50;1714477;82;21546;-61
2021/01/24 17:18:00;;;;;;;17.30;7.23;;;;;;;4.24;67.97;97119.47;1730543;82;21110;-60
2021/01/24 17:20:26;;;;;;;16.53;7.97;;;;;;;4.24;67.75;97114.89;1738918;82;21177;-61
2021/01/24 17:22:52;;;;;;;17.80;7.67;;;;;;;4.32;67.90;97125.25;1739022;82;21110;-60
2021/01/24 17:25:17;;;;;;;17.57;7.57;;;;;;;4.30;68.08;97128.30;1738943;82;21136;-60
2021/01/24 17:27:44;;;;;;;15.47;7.20;;;;;;;4.30;68.40;97128.86;1739161;82;21577;-60
2021/01/24 17:30:11;;;;;;;15.20;7.90;;;;;;;4.26;68.40;97130.11;1718102;82;21098;-60
2021/01/24 17:32:37;;;;;;;21.03;8.50;;;;;;;4.21;68.21;97137.05;1738862;82;21162;-60
2021/01/24 17:35:04;;;;;;;17.83;7.50;;;;;;;4.17;68.07;97128.13;1738917;82;21562;-61
2021/01/24 17:37:30;;;;;;;17.27;7.73;;;;;;;4.15;67.94;97126.36;1738798;82;21152;-61
2021/01/24 17:39:57;;;;;;;17.97;8.07;;;;;;;4.13;67.72;97123.22;1738932;82;21142;-60
2021/01/24 17:42:23;;;;;;;17.67;7.60;;;;;;;4.11;67.61;97117.98;1739188;82;21162;-62
2021/01/24 17:44:49;;;;;;;17.17;7.60;;;;;;;4.10;67.61;97121.78;1739092;82;21557;-56
2021/01/24 17:47:15;;;;;;;17.23;8.00;;;;;;;4.16;67.90;97121.19;1738974;82;21108;-63
2021/01/24 17:49:42;;;;;;;34.10;14.47;;;;;;;4.27;67.97;97124.18;1738957;82;21268;-60
2021/01/24 17:52:08;;;;;;;22.93;9.73;;;;;;;4.31;67.97;97124.47;1739106;82;21181;-58
2021/01/24 17:54:34;;;;;;;19.13;7.40;;;;;;;4.38;67.92;97127.92;1739108;82;21168;-60
2021/01/24 17:57:00;;;;;;;19.70;8.30;;;;;;;4.43;67.57;97120.16;1739092;82;21709;-62
2021/01/24 17:59:26;;;;;;;20.73;9.27;;;;;;;4.50;67.51;97117.09;1739103;82;21171;-63
2021/01/24 18:01:52;;;;;;;18.03;7.60;;;;;;;4.55;67.22;97114.17;1738983;82;21141;-59
2021/01/24 18:04:18;;;;;;;23.13;9.40;;;;;;;4.58;66.98;97114.03;1742970;81;21631;-59
2021/01/24 18:06:44;;;;;;;24.07;10.83;;;;;;;4.65;67.11;97116.92;1752994;82;21264;-60
2021/01/24 18:09:10;;;;;;;19.93;8.87;;;;;;;4.71;67.01;97112.84;1752929;81;21542;-62
2021/01/24 18:11:36;;;;;;;22.03;10.03;;;;;;;4.67;67.42;97116.00;1753187;82;21272;-60
2021/01/24 18:14:03;;;;;;;25.77;10.47;;;;;;;4.67;67.65;97125.40;1753121;82;21179;-60
2021/01/24 18:16:28;;;;;;;24.37;10.70;;;;;;;4.56;67.34;97123.79;1752953;82;21587;-58
2021/01/24 18:18:55;;;;;;;23.67;10.60;;;;;;;4.54;67.32;97133.30;1753355;81;21063;-61
2021/01/24 18:21:22;;;;;;;27.63;11.00;;;;;;;4.53;67.24;97137.13;1753408;82;21118;-61
2021/01/24 18:23:49;;;;;;;28.90;11.07;;;;;;;4.49;67.23;97142.96;1753573;82;21158;-61
2021/01/24 18:26:17;;;;;;;21.60;10.53;;;;;;;4.42;67.28;97143.56;1753717;82;21191;-61
2021/01/24 18:28:43;;;;;;;22.10;10.50;;;;;;;4.34;67.25;97143.94;1753242;82;21169;-58
2021/01/24 18:31:11;;;;;;;24.57;11.23;;;;;;;4.31;67.44;97142.50;1753620;82;21159;-62
2021/01/24 18:33:37;;;;;;;24.87;11.27;;;;;;;4.30;67.53;97149.77;1753351;82;21166;-60
2021/01/24 18:36:04;;;;;;;26.13;11.03;;;;;;;4.17;67.70;97149.59;1753411;82;21167;-59
2021/01/24 18:38:31;;;;;;;27.90;12.33;;;;;;;4.07;67.81;97150.64;1753493;82;21066;-62
2021/01/24 18:40:58;;;;;;;30.17;12.90;;;;;;;3.98;67.88;97150.77;1753624;82;21114;-62
2021/01/24 18:43:23;;;;;;;28.33;13.00;;;;;;;3.88;67.94;97149.92;1753424;82;21621;-59
2021/01/24 18:45:51;;;;;;;32.70;14.70;;;;;;;3.81;68.01;97157.77;1753426;82;21073;-62
2021/01/24 18:48:17;;;;;;;34.47;16.13;;;;;;;3.73;68.23;97152.75;1753798;82;21173;-61
2021/01/24 18:50:45;;;;;;;33.93;16.03;;;;;;;3.76;68.55;97141.91;1753493;82;21157;-59
2021/01/24 18:53:12;;;;;;;34.07;15.60;;;;;;;3.74;68.61;97147.62;1753280;82;21523;-62
2021/01/24 18:55:41;;;;;;;34.17;16.00;;;;;;;3.65;68.80;97150.20;1753242;82;21555;-61
2021/01/24 18:58:07;;;;;;;33.50;16.40;;;;;;;3.60;68.78;97145.09;1753092;82;21165;-64
2021/01/24 19:00:33;;;;;;;32.80;14.93;;;;;;;3.54;68.72;97140.50;1753014;82;21153;-57
2021/01/24 19:03:00;;;;;;;36.47;15.63;;;;;;;3.51;68.65;97140.41;1752940;82;21126;-61
2021/01/24 19:05:25;;;;;;;34.13;13.77;;;;;;;3.48;68.55;97139.19;1743597;81;21551;-59
2021/01/24 19:07:51;;;;;;;39.30;16.23;;;;;;;3.48;68.67;97149.13;1739116;82;21094;-57
2021/01/24 19:10:17;;;;;;;32.27;13.27;;;;;;;3.53;68.74;97144.85;1739240;82;21075;-59
2021/01/24 19:12:43;;;;;;;33.23;15.77;;;;;;;3.54;68.83;97157.14;1725950;82;21187;-59
2021/01/24 19:15:09;;;;;;;32.13;14.53;;;;;;;3.47;68.79;97160.40;1732631;82;21233;-57
2021/01/24 19:17:35;;;;;;;33.37;14.97;;;;;;;3.41;68.78;97157.16;1740335;82;21098;-59
2021/01/24 19:20:03;;;;;;;32.63;14.83;;;;;;;3.40;68.70;97157.50;1740015;82;21088;-56
2021/01/24 19:22:29;;;;;;;36.53;14.83;;;;;;;3.39;68.58;97155.94;1740484;82;21114;-58
2021/01/24 19:24:54;;;;;;;36.63;16.73;;;;;;;3.37;68.60;97158.19;1740048;82;21087;-58
2021/01/24 19:27:20;;;;;;;35.87;14.93;;;;;;;3.47;68.62;97159.61;1740004;82;21604;-58
2021/01/24 19:29:47;;;;;;;32.80;14.63;;;;;;;3.48;68.78;97159.84;1740112;82;21142;-58
2021/01/24 19:32:12;;;;;;;31.67;15.10;;;;;;;3.51;68.95;97162.62;1740517;82;21071;-59
2021/01/24 19:34:38;;;;;;;34.70;15.07;;;;;;;3.49;68.84;97165.44;1740125;82;21102;-57
2021/01/24 19:37:04;;;;;;;34.60;14.70;;;;;;;3.47;68.68;97160.95;1740051;82;21562;-59
2021/01/24 19:39:30;;;;;;;33.60;15.73;;;;;;;3.43;68.48;97162.19;1740309;82;21217;-58
2021/01/24 19:42:01;;;;;;;31.43;15.23;;;;;;;3.40;68.45;97164.20;1739980;82;21118;-58
2021/01/24 19:44:26;;;;;;;35.00;15.60;;;;;;;3.38;68.31;97171.23;1740257;82;21361;-60
2021/01/24 19:46:53;;;;;;;34.23;15.47;;;;;;;3.37;68.28;97165.64;1719500;82;21082;-60
2021/01/24 19:49:18;;;;;;;37.13;16.57;;;;;;;3.43;68.43;97164.87;1740255;82;21185;-58
2021/01/24 19:51:45;;;;;;;37.33;16.33;;;;;;;3.55;68.55;97164.08;1740376;82;21075;-58
2021/01/24 19:54:10;;;;;;;36.30;16.93;;;;;;;3.54;68.68;97163.84;1740014;82;21098;-56
2021/01/24 19:56:36;;;;;;;32.97;15.73;;;;;;;3.50;68.62;97153.58;1739874;82;21146;-59
2021/01/24 19:59:03;;;;;;;32.13;14.77;;;;;;;3.49;68.53;97164.85;1740371;82;21143;-59
2021/01/24 20:01:29;;;;;;;35.10;15.90;;;;;;;3.51;68.35;97158.61;1740489;82;21193;-60
2021/01/24 20:03:55;;;;;;;37.23;15.30;;;;;;;3.49;68.26;97156.81;1740122;82;21150;-58
2021/01/24 20:06:21;;;;;;;31.70;14.93;;;;;;;3.48;68.22;97159.28;1752893;81;21292;-57
2021/01/24 20:08:47;;;;;;;35.20;15.30;;;;;;;3.44;68.16;97157.06;1754314;82;21109;-57
2021/01/24 20:11:13;;;;;;;35.30;14.70;;;;;;;3.45;68.36;97155.16;1754317;82;21067;-60
2021/01/24 20:13:39;;;;;;;30.47;14.03;;;;;;;3.48;68.42;97147.78;1754294;82;21143;-61
2021/01/24 20:16:06;;;;;;;31.37;13.87;;;;;;;3.49;68.41;97151.45;1754048;82;21669;-60
2021/01/24 20:18:32;;;;;;;33.27;14.90;;;;;;;3.38;68.46;97143.09;1742450;82;21090;-61
2021/01/24 20:20:58;;;;;;;30.70;13.53;;;;;;;3.34;68.45;97150.80;1740432;82;21113;-60
2021/01/24 20:23:24;;;;;;;26.73;12.13;;;;;;;3.29;68.37;97149.70;1737283;82;21070;-60
2021/01/24 20:25:50;;;;;;;28.27;12.43;;;;;;;3.26;68.32;97151.72;1736343;82;21125;-62
2021/01/24 20:28:16;;;;;;;28.53;11.93;;;;;;;3.24;68.36;97152.05;1754175;82;21118;-63
2021/01/24 20:30:41;;;;;;;29.67;11.83;;;;;;;3.32;68.44;97151.70;1754365;82;21120;-55
2021/01/24 20:33:07;;;;;;;27.07;12.07;;;;;;;3.34;68.50;97154.26;1754026;82;21110;-55
2021/01/24 20:35:33;;;;;;;29.00;12.17;;;;;;;3.27;68.41;97154.05;1754347;82;21229;-58
2021/01/24 20:37:59;;;;;;;28.57;11.50;;;;;;;3.24;68.39;97154.72;1754094;82;21542;-54
2021/01/24 20:40:25;;;;;;;28.07;11.90;;;;;;;3.26;68.30;97163.77;1754141;82;21090;-54
2021/01/24 20:42:51;;;;;;;28.77;10.80;;;;;;;3.24;68.22;97174.81;1754341;82;21114;-57
2021/01/24 20:45:19;;;;;;;25.03;9.70;;;;;;;3.19;68.12;97166.99;1754189;82;21143;-58
2021/01/24 20:47:46;;;;;;;21.60;10.00;;;;;;;3.30;68.18;97167.31;1754721;82;21081;-59
2021/01/24 20:50:12;;;;;;;23.93;10.30;;;;;;;3.34;68.40;97173.02;1754245;81;21095;-59
2021/01/24 20:52:38;;;;;;;23.87;10.93;;;;;;;3.40;68.37;97169.56;1754130;81;21479;-56
2021/01/24 20:55:06;;;;;;;26.20;9.67;;;;;;;3.34;68.18;97172.23;1754009;82;21145;-60
2021/01/24 20:57:33;;;;;;;29.70;10.53;;;;;;;3.31;67.89;97175.03;1753881;81;21140;-60
2021/01/24 20:59:59;;;;;;;29.90;12.53;;;;;;;3.30;67.78;97176.70;1754810;81;21106;-61
2021/01/24 21:02:25;;;;;;;24.50;10.63;;;;;;;3.31;67.68;97171.02;1754135;82;21224;-56
2021/01/24 21:04:51;;;;;;;27.60;10.33;;;;;;;3.31;67.55;97168.89;1751648;81;21136;-57
2021/01/24 21:07:19;;;;;;;27.00;10.80;;;;;;;3.35;67.64;97169.78;1740185;82;21099;-59
2021/01/24 21:09:45;;;;;;;26.33;10.33;;;;;;;3.37;67.46;97169.66;1740214;82;21270;-58
2021/01/24 21:12:11;;;;;;;24.53;10.03;;;;;;;3.34;67.35;97162.30;1740009;82;21115;-61
2021/01/24 21:14:38;;;;;;;23.97;10.10;;;;;;;3.35;67.48;97166.55;1736003;82;21074;-60
2021/01/24 21:17:04;;;;;;;23.50;10.50;;;;;;;3.45;67.58;97164.55;1725128;82;21150;-58
2021/01/24 21:19:30;;;;;;;25.13;9.97;;;;;;;3.51;67.51;97166.65;1722179;82;21112;-57
2021/01/24 21:21:56;;;;;;;20.90;9.17;;;;;;;3.45;67.33;97167.22;1727324;82;21102;-59
2021/01/24 21:24:22;;;;;;;24.40;9.80;;;;;;;3.40;67.18;97167.67;1725251;82;21499;-61
2021/01/24 21:26:48;;;;;;;22.13;9.47;;;;;;;3.40;67.04;97166.89;1722337;82;21098;-62
2021/01/24 21:29:14;;;;;;;22.57;9.47;;;;;;;3.37;66.73;97155.50;1722399;82;21105;-57
2021/01/24 21:31:41;;;;;;;25.03;9.47;;;;;;;3.37;66.73;97155.50;1726312;82;21268;-61
2021/01/24 21:34:07;;;;;;;23.70;10.20;;;;;;;3.42;66.85;97153.92;1722416;82;21134;-59
2021/01/24 21:36:33;;;;;;;22.87;10.23;;;;;;;3.40;66.71;97148.13;1723278;82;21071;-60
2021/01/24 21:38:59;;;;;;;21.17;9.87;;;;;;;3.37;66.76;97136.75;1716285;82;21622;-60
2021/01/24 21:41:24;;;;;;;22.03;9.97;;;;;;;3.44;66.82;97138.85;1724285;82;21268;-61
2021/01/24 21:43:50;;;;;;;21.07;8.43;;;;;;;3.46;66.68;97138.73;1739938;82;21590;-59
2021/01/24 21:46:16;;;;;;;22.13;8.73;;;;;;;3.44;66.72;97140.19;1740495;82;21098;-58
2021/01/24 21:48:42;;;;;;;22.63;8.57;;;;;;;3.39;66.68;97137.17;1740395;82;21122;-60
2021/01/24 21:51:08;;;;;;;25.00;10.60;;;;;;;3.42;66.50;97133.82;1740332;82;21110;-60
2021/01/24 21:53:34;;;;;;;20.70;8.20;;;;;;;3.37;66.53;97128.70;1734213;82;21078;-63
2021/01/24 21:56:00;;;;;;;19.17;7.93;;;;;;;3.39;66.66;97134.50;1711430;82;26863;-59
2021/01/24 21:58:26;;;;;;;21.33;9.03;;;;;;;3.37;66.54;97128.70;1639881;85;162119;-60
2021/01/24 22:00:52;;;;;;;19.77;8.17;;;;;;;3.33;66.46;97129.95;1641515;87;22837;-57
2021/01/24 22:03:18;;;;;;;25.23;8.77;;;;;;;3.37;66.56;97124.10;1642159;87;21193;-58
2021/01/24 22:05:44;;;;;;;22.20;9.07;;;;;;;3.34;66.50;97122.66;1660543;85;21143;-54
2021/01/24 22:08:10;;;;;;;20.13;8.47;;;;;;;3.32;66.44;97127.59;1667976;85;21104;-53
2021/01/24 22:10:36;;;;;;;21.43;8.87;;;;;;;3.31;66.72;97119.32;1643340;86;21679;-56
2021/01/24 22:13:02;;;;;;;19.97;8.57;;;;;;;3.40;66.92;97115.97;1643395;87;21263;-53
2021/01/24 22:15:29;;;;;;;23.83;8.83;;;;;;;3.41;67.02;97116.95;1641737;87;21697;-58
2021/01/24 22:17:55;;;;;;;24.63;10.00;;;;;;;3.39;66.97;97116.52;1642183;87;21352;-58
2021/01/24 22:20:21;;;;;;;25.07;9.80;;;;;;;3.35;66.86;97108.94;1642493;87;21159;-52
2021/01/24 22:22:47;;;;;;;25.97;10.47;;;;;;;3.35;66.70;97116.19;1626629;87;21271;-54
2021/01/24 22:25:13;;;;;;;22.87;9.13;;;;;;;3.31;66.55;97110.73;1642368;87;21762;-57
2021/01/24 22:27:39;;;;;;;27.87;11.00;;;;;;;3.33;66.44;97109.84;1642236;87;21139;-54
2021/01/24 22:30:06;;;;;;;24.07;9.90;;;;;;;3.35;66.46;97102.80;1642382;87;21098;-59
2021/01/24 22:32:32;;;;;;;27.10;11.13;;;;;;;3.33;66.42;97103.70;1642897;86;21145;-58
2021/01/24 22:34:58;;;;;;;26.77;10.60;;;;;;;3.32;66.35;97102.92;1643721;87;21124;-58
